sensor_id;sensor_type;location;lat;lon;timestamp;temperature;humidity
9965;DHT22;5023;53.554;9.964;2022-08-21T00:09:31;18.80;99.90
9965;DHT22;5023;53.554;9.964;2022-08-21T00:14:34;18.80;99.90
9965;DHT22;5023;53.554;9.964;2022-08-21T00:19:52;18.80;99.90
9965;DHT22;5023;53.554;9.964;2022-08-21T00:25:12;18.60;99.90
9965;DHT22;5023;53.554;9.964;2022-08-21T00:30:16;18.60;99.90
9965;DHT22;5023;53.554;9.964;2022-08-21T00:35:23;18.60;99.90
9965;DHT22;5023;53.554;9.964;2022-08-21T00:40:47;18.60;99.90
9965;DHT22;5023;53.554;9.964;2022-08-21T00:45:50;18.60;99.90
9965;DHT22;5023;53.554;9.964;2022-08-21T00:51:25;18.60;99.90
9965;DHT22;5023;53.554;9.964;2022-08-21T00:56:54;18.60;99.90
9965;DHT22;5023;53.554;9.964;2022-08-21T01:01:57;18.70;99.90
9965;DHT22;5023;53.554;9.964;2022-08-21T01:07:01;18.70;99.90
9965;DHT22;5023;53.554;9.964;2022-08-21T01:12:29;18.70;99.90
9965;DHT22;5023;53.554;9.964;2022-08-21T01:17:32;18.70;99.90
9965;DHT22;5023;53.554;9.964;2022-08-21T01:22:36;18.60;99.90
9965;DHT22;5023;53.554;9.964;2022-08-21T01:27:38;18.60;99.90
9965;DHT22;5023;53.554;9.964;2022-08-21T01:32:41;18.60;99.90
9965;DHT22;5023;53.554;9.964;2022-08-21T01:37:45;18.60;99.90
9965;DHT22;5023;53.554;9.964;2022-08-21T01:42:48;18.50;99.90
9965;DHT22;5023;53.554;9.964;2022-08-21T01:47:51;18.50;99.90
9965;DHT22;5023;53.554;9.964;2022-08-21T01:52:59;18.50;99.90
9965;DHT22;5023;53.554;9.964;2022-08-21T01:58:11;18.50;99.90
9965;DHT22;5023;53.554;9.964;2022-08-21T02:03:13;18.50;99.90
9965;DHT22;5023;53.554;9.964;2022-08-21T02:08:19;18.40;99.90
9965;DHT22;5023;53.554;9.964;2022-08-21T02:13:30;18.40;99.90
9965;DHT22;5023;53.554;9.964;2022-08-21T02:18:34;18.30;99.90
9965;DHT22;5023;53.554;9.964;2022-08-21T02:23:37;18.20;99.90
9965;DHT22;5023;53.554;9.964;2022-08-21T02:29:05;18.30;99.90
9965;DHT22;5023;53.554;9.964;2022-08-21T02:34:35;18.30;99.90
9965;DHT22;5023;53.554;9.964;2022-08-21T02:39:38;18.20;99.90
9965;DHT22;5023;53.554;9.964;2022-08-21T02:45:06;18.20;99.90
9965;DHT22;5023;53.554;9.964;2022-08-21T02:50:09;18.10;99.90
9965;DHT22;5023;53.554;9.964;2022-08-21T02:55:36;18.10;99.90
9965;DHT22;5023;53.554;9.964;2022-08-21T03:00:39;18.10;99.90
9965;DHT22;5023;53.554;9.964;2022-08-21T03:05:49;18.00;99.90
9965;DHT22;5023;53.554;9.964;2022-08-21T03:10:53;17.90;99.90
9965;DHT22;5023;53.554;9.964;2022-08-21T03:15:56;17.90;99.90
9965;DHT22;5023;53.554;9.964;2022-08-21T03:20:58;17.80;99.90
9965;DHT22;5023;53.554;9.964;2022-08-21T03:26:12;17.80;99.90
9965;DHT22;5023;53.554;9.964;2022-08-21T03:31:41;17.80;99.90
9965;DHT22;5023;53.554;9.964;2022-08-21T03:36:44;17.80;99.90
9965;DHT22;5023;53.554;9.964;2022-08-21T03:41:47;17.80;99.90
9965;DHT22;5023;53.554;9.964;2022-08-21T03:47:10;17.70;99.90
9965;DHT22;5023;53.554;9.964;2022-08-21T03:52:13;17.70;99.90
9965;DHT22;5023;53.554;9.964;2022-08-21T03:57:17;17.70;99.90
9965;DHT22;5023;53.554;9.964;2022-08-21T04:02:34;17.60;99.90
9965;DHT22;5023;53.554;9.964;2022-08-21T04:07:36;17.50;99.90
9965;DHT22;5023;53.554;9.964;2022-08-21T04:12:40;17.40;99.90
9965;DHT22;5023;53.554;9.964;2022-08-21T04:17:42;17.50;99.90
9965;DHT22;5023;53.554;9.964;2022-08-21T04:22:45;17.50;99.90
9965;DHT22;5023;53.554;9.964;2022-08-21T04:27:49;17.50;99.90
9965;DHT22;5023;53.554;9.964;2022-08-21T04:32:52;17.60;99.90
9965;DHT22;5023;53.554;9.964;2022-08-21T04:37:58;17.60;99.90
9965;DHT22;5023;53.554;9.964;2022-08-21T04:43:04;17.70;99.90
9965;DHT22;5023;53.554;9.964;2022-08-21T04:48:22;17.80;99.90
9965;DHT22;5023;53.554;9.964;2022-08-21T04:53:52;17.90;99.90
9965;DHT22;5023;53.554;9.964;2022-08-21T04:59:02;17.90;99.90
9965;DHT22;5023;53.554;9.964;2022-08-21T05:04:33;17.90;99.90
9965;DHT22;5023;53.554;9.964;2022-08-21T05:09:56;18.00;99.90
9965;DHT22;5023;53.554;9.964;2022-08-21T05:15:00;18.10;99.90
9965;DHT22;5023;53.554;9.964;2022-08-21T05:20:08;18.10;99.90
9965;DHT22;5023;53.554;9.964;2022-08-21T05:25:10;18.00;99.90
9965;DHT22;5023;53.554;9.964;2022-08-21T05:30:14;18.00;99.90
9965;DHT22;5023;53.554;9.964;2022-08-21T05:35:37;18.00;99.90
9965;DHT22;5023;53.554;9.964;2022-08-21T05:40:57;18.00;99.90
9965;DHT22;5023;53.554;9.964;2022-08-21T05:46:09;18.00;99.90
9965;DHT22;5023;53.554;9.964;2022-08-21T05:51:30;17.90;99.90
9965;DHT22;5023;53.554;9.964;2022-08-21T05:56:32;17.90;99.90
9965;DHT22;5023;53.554;9.964;2022-08-21T06:01:40;17.90;99.90
9965;DHT22;5023;53.554;9.964;2022-08-21T06:07:07;18.00;99.90
9965;DHT22;5023;53.554;9.964;2022-08-21T06:12:39;18.00;99.90
9965;DHT22;5023;53.554;9.964;2022-08-21T06:23:35;18.00;99.90
9965;DHT22;5023;53.554;9.964;2022-08-21T06:28:38;18.10;99.90
9965;DHT22;5023;53.554;9.964;2022-08-21T06:34:24;18.30;99.90
9965;DHT22;5023;53.554;9.964;2022-08-21T06:40:09;18.40;99.90
9965;DHT22;5023;53.554;9.964;2022-08-21T06:45:45;18.40;99.90
9965;DHT22;5023;53.554;9.964;2022-08-21T06:50:48;18.40;99.90
9965;DHT22;5023;53.554;9.964;2022-08-21T06:55:51;18.40;99.90
9965;DHT22;5023;53.554;9.964;2022-08-21T07:00:56;18.40;99.90
9965;DHT22;5023;53.554;9.964;2022-08-21T07:06:00;18.50;99.90
9965;DHT22;5023;53.554;9.964;2022-08-21T07:11:59;18.70;99.90
9965;DHT22;5023;53.554;9.964;2022-08-21T07:17:34;18.90;99.90
9965;DHT22;5023;53.554;9.964;2022-08-21T07:22:38;19.10;99.90
9965;DHT22;5023;53.554;9.964;2022-08-21T07:34:14;19.50;99.90
9965;DHT22;5023;53.554;9.964;2022-08-21T07:40:20;19.60;99.90
9965;DHT22;5023;53.554;9.964;2022-08-21T07:45:54;19.70;99.90
9965;DHT22;5023;53.554;9.964;2022-08-21T07:51:39;19.80;99.90
9965;DHT22;5023;53.554;9.964;2022-08-21T07:56:43;19.80;99.90
9965;DHT22;5023;53.554;9.964;2022-08-21T08:02:06;20.00;99.90
9965;DHT22;5023;53.554;9.964;2022-08-21T08:07:08;20.10;99.90
9965;DHT22;5023;53.554;9.964;2022-08-21T08:12:12;20.30;99.90
9965;DHT22;5023;53.554;9.964;2022-08-21T08:17:30;20.40;99.90
9965;DHT22;5023;53.554;9.964;2022-08-21T08:23:11;20.60;99.90
9965;DHT22;5023;53.554;9.964;2022-08-21T08:29:01;20.80;99.90
9965;DHT22;5023;53.554;9.964;2022-08-21T08:34:03;21.10;99.90
9965;DHT22;5023;53.554;9.964;2022-08-21T08:39:06;21.30;99.90
9965;DHT22;5023;53.554;9.964;2022-08-21T08:44:09;21.40;99.90
9965;DHT22;5023;53.554;9.964;2022-08-21T08:50:00;21.40;99.90
9965;DHT22;5023;53.554;9.964;2022-08-21T08:56:01;21.50;99.90
9965;DHT22;5023;53.554;9.964;2022-08-21T09:01:37;21.70;99.90
9965;DHT22;5023;53.554;9.964;2022-08-21T09:07:07;21.60;99.90
9965;DHT22;5023;53.554;9.964;2022-08-21T09:12:53;21.70;99.90
9965;DHT22;5023;53.554;9.964;2022-08-21T09:24:47;21.90;99.90
9965;DHT22;5023;53.554;9.964;2022-08-21T09:30:41;22.10;99.90
9965;DHT22;5023;53.554;9.964;2022-08-21T09:36:25;22.20;99.90
9965;DHT22;5023;53.554;9.964;2022-08-21T09:42:07;22.30;99.90
9965;DHT22;5023;53.554;9.964;2022-08-21T09:48:13;22.30;99.90
9965;DHT22;5023;53.554;9.964;2022-08-21T09:53:19;22.50;99.90
9965;DHT22;5023;53.554;9.964;2022-08-21T09:58:54;22.50;99.90
9965;DHT22;5023;53.554;9.964;2022-08-21T10:04:03;22.50;99.90
9965;DHT22;5023;53.554;9.964;2022-08-21T10:09:40;22.60;99.90
9965;DHT22;5023;53.554;9.964;2022-08-21T10:15:47;22.70;99.90
9965;DHT22;5023;53.554;9.964;2022-08-21T10:21:28;22.70;99.90
9965;DHT22;5023;53.554;9.964;2022-08-21T10:26:42;22.80;99.90
9965;DHT22;5023;53.554;9.964;2022-08-21T10:32:47;22.70;99.90
9965;DHT22;5023;53.554;9.964;2022-08-21T10:44:49;23.20;99.90
9965;DHT22;5023;53.554;9.964;2022-08-21T10:50:39;23.30;99.90
9965;DHT22;5023;53.554;9.964;2022-08-21T10:56:22;23.30;99.90
9965;DHT22;5023;53.554;9.964;2022-08-21T11:02:13;23.50;99.90
9965;DHT22;5023;53.554;9.964;2022-08-21T11:08:13;23.60;99.90
9965;DHT22;5023;53.554;9.964;2022-08-21T11:26:34;23.70;99.90
9965;DHT22;5023;53.554;9.964;2022-08-21T11:31:56;24.00;99.90
9965;DHT22;5023;53.554;9.964;2022-08-21T11:37:59;24.30;99.90
9965;DHT22;5023;53.554;9.964;2022-08-21T11:43:43;24.50;98.90
9965;DHT22;5023;53.554;9.964;2022-08-21T11:49:42;24.80;96.90
9965;DHT22;5023;53.554;9.964;2022-08-21T11:55:25;25.00;96.20
9965;DHT22;5023;53.554;9.964;2022-08-21T12:01:25;25.30;94.00
9965;DHT22;5023;53.554;9.964;2022-08-21T12:07:14;25.50;92.80
9965;DHT22;5023;53.554;9.964;2022-08-21T12:19:06;25.60;91.40
9965;DHT22;5023;53.554;9.964;2022-08-21T12:24:50;25.70;91.70
9965;DHT22;5023;53.554;9.964;2022-08-21T12:30:22;25.60;92.50
9965;DHT22;5023;53.554;9.964;2022-08-21T12:36:15;25.30;92.20
9965;DHT22;5023;53.554;9.964;2022-08-21T12:41:41;25.40;92.60
9965;DHT22;5023;53.554;9.964;2022-08-21T12:46:51;25.20;91.50
9965;DHT22;5023;53.554;9.964;2022-08-21T12:52:12;25.30;91.50
9965;DHT22;5023;53.554;9.964;2022-08-21T12:57:48;25.60;91.10
9965;DHT22;5023;53.554;9.964;2022-08-21T13:02:53;26.30;89.90
9965;DHT22;5023;53.554;9.964;2022-08-21T13:08:12;26.10;87.80
9965;DHT22;5023;53.554;9.964;2022-08-21T13:13:19;26.40;85.70
9965;DHT22;5023;53.554;9.964;2022-08-21T13:18:58;26.90;84.30
9965;DHT22;5023;53.554;9.964;2022-08-21T13:24:22;27.10;81.90
9965;DHT22;5023;53.554;9.964;2022-08-21T13:29:30;27.60;78.50
9965;DHT22;5023;53.554;9.964;2022-08-21T13:34:37;26.90;77.70
9965;DHT22;5023;53.554;9.964;2022-08-21T13:40:19;27.30;75.70
9965;DHT22;5023;53.554;9.964;2022-08-21T13:45:31;28.00;72.80
9965;DHT22;5023;53.554;9.964;2022-08-21T13:50:37;28.30;71.20
9965;DHT22;5023;53.554;9.964;2022-08-21T13:56:07;28.90;69.00
9965;DHT22;5023;53.554;9.964;2022-08-21T14:01:19;28.80;67.20
9965;DHT22;5023;53.554;9.964;2022-08-21T14:06:26;28.80;65.80
9965;DHT22;5023;53.554;9.964;2022-08-21T14:11:35;28.30;65.80
9965;DHT22;5023;53.554;9.964;2022-08-21T14:16:59;28.70;65.00
9965;DHT22;5023;53.554;9.964;2022-08-21T14:22:32;28.80;65.60
9965;DHT22;5023;53.554;9.964;2022-08-21T14:27:44;29.40;64.30
9965;DHT22;5023;53.554;9.964;2022-08-21T14:33:09;29.00;63.70
9965;DHT22;5023;53.554;9.964;2022-08-21T14:38:29;28.90;63.90
9965;DHT22;5023;53.554;9.964;2022-08-21T14:43:34;28.80;64.50
9965;DHT22;5023;53.554;9.964;2022-08-21T14:49:19;28.40;63.60
9965;DHT22;5023;53.554;9.964;2022-08-21T14:54:28;28.00;65.50
9965;DHT22;5023;53.554;9.964;2022-08-21T15:00:07;28.00;66.70
9965;DHT22;5023;53.554;9.964;2022-08-21T15:05:27;27.90;66.30
9965;DHT22;5023;53.554;9.964;2022-08-21T15:10:33;27.90;66.40
9965;DHT22;5023;53.554;9.964;2022-08-21T15:16:31;28.00;67.00
9965;DHT22;5023;53.554;9.964;2022-08-21T15:21:38;27.70;67.60
9965;DHT22;5023;53.554;9.964;2022-08-21T15:26:58;27.50;68.00
9965;DHT22;5023;53.554;9.964;2022-08-21T15:32:18;27.20;68.00
9965;DHT22;5023;53.554;9.964;2022-08-21T15:37:35;27.00;68.70
9965;DHT22;5023;53.554;9.964;2022-08-21T15:42:58;26.90;68.30
9965;DHT22;5023;53.554;9.964;2022-08-21T15:48:37;26.60;69.30
9965;DHT22;5023;53.554;9.964;2022-08-21T15:53:40;26.40;69.10
9965;DHT22;5023;53.554;9.964;2022-08-21T15:58:44;26.30;69.90
9965;DHT22;5023;53.554;9.964;2022-08-21T16:04:02;26.10;70.40
9965;DHT22;5023;53.554;9.964;2022-08-21T16:09:06;25.90;71.00
9965;DHT22;5023;53.554;9.964;2022-08-21T16:14:10;25.90;71.00
9965;DHT22;5023;53.554;9.964;2022-08-21T16:19:29;25.80;71.30
9965;DHT22;5023;53.554;9.964;2022-08-21T16:24:31;25.80;71.10
9965;DHT22;5023;53.554;9.964;2022-08-21T16:29:54;25.70;71.20
9965;DHT22;5023;53.554;9.964;2022-08-21T16:34:56;25.60;72.30
9965;DHT22;5023;53.554;9.964;2022-08-21T16:39:59;25.50;73.20
9965;DHT22;5023;53.554;9.964;2022-08-21T16:45:05;25.50;72.80
9965;DHT22;5023;53.554;9.964;2022-08-21T16:50:10;25.40;73.10
9965;DHT22;5023;53.554;9.964;2022-08-21T16:55:14;25.40;73.90
9965;DHT22;5023;53.554;9.964;2022-08-21T17:00:22;25.30;73.70
9965;DHT22;5023;53.554;9.964;2022-08-21T17:05:26;25.20;73.40
9965;DHT22;5023;53.554;9.964;2022-08-21T17:10:29;25.10;73.80
9965;DHT22;5023;53.554;9.964;2022-08-21T17:15:37;25.10;74.60
9965;DHT22;5023;53.554;9.964;2022-08-21T17:20:53;25.10;74.50
9965;DHT22;5023;53.554;9.964;2022-08-21T17:25:57;24.90;75.40
9965;DHT22;5023;53.554;9.964;2022-08-21T17:31:02;24.90;76.90
9965;DHT22;5023;53.554;9.964;2022-08-21T17:36:23;24.80;77.90
9965;DHT22;5023;53.554;9.964;2022-08-21T17:41:25;24.80;78.90
9965;DHT22;5023;53.554;9.964;2022-08-21T17:46:40;24.60;79.40
9965;DHT22;5023;53.554;9.964;2022-08-21T17:51:56;24.60;81.40
9965;DHT22;5023;53.554;9.964;2022-08-21T17:57:03;24.50;83.90
9965;DHT22;5023;53.554;9.964;2022-08-21T18:02:07;24.30;87.40
9965;DHT22;5023;53.554;9.964;2022-08-21T18:07:24;24.00;91.00
9965;DHT22;5023;53.554;9.964;2022-08-21T18:12:32;23.70;94.70
9965;DHT22;5023;53.554;9.964;2022-08-21T18:17:39;23.60;99.90
9965;DHT22;5023;53.554;9.964;2022-08-21T18:22:58;23.50;99.90
9965;DHT22;5023;53.554;9.964;2022-08-21T18:28:15;23.30;99.90
9965;DHT22;5023;53.554;9.964;2022-08-21T18:33:34;23.10;99.90
9965;DHT22;5023;53.554;9.964;2022-08-21T18:39:23;23.00;99.90
9965;DHT22;5023;53.554;9.964;2022-08-21T18:44:39;22.90;99.90
9965;DHT22;5023;53.554;9.964;2022-08-21T18:49:49;22.80;99.90
9965;DHT22;5023;53.554;9.964;2022-08-21T18:55:36;22.60;99.90
9965;DHT22;5023;53.554;9.964;2022-08-21T19:00:41;22.60;99.90
9965;DHT22;5023;53.554;9.964;2022-08-21T19:06:06;22.40;99.90
9965;DHT22;5023;53.554;9.964;2022-08-21T19:11:41;22.30;99.90
9965;DHT22;5023;53.554;9.964;2022-08-21T19:17:04;22.20;99.90
9965;DHT22;5023;53.554;9.964;2022-08-21T19:22:09;22.10;99.90
9965;DHT22;5023;53.554;9.964;2022-08-21T19:27:12;22.00;99.90
9965;DHT22;5023;53.554;9.964;2022-08-21T19:32:15;21.90;99.90
9965;DHT22;5023;53.554;9.964;2022-08-21T19:37:20;21.70;99.90
9965;DHT22;5023;53.554;9.964;2022-08-21T19:42:25;21.60;99.90
9965;DHT22;5023;53.554;9.964;2022-08-21T19:47:27;21.50;99.90
9965;DHT22;5023;53.554;9.964;2022-08-21T19:52:52;21.50;99.90
9965;DHT22;5023;53.554;9.964;2022-08-21T19:58:27;21.40;99.90
9965;DHT22;5023;53.554;9.964;2022-08-21T20:03:37;21.40;99.90
9965;DHT22;5023;53.554;9.964;2022-08-21T20:09:03;21.40;99.90
9965;DHT22;5023;53.554;9.964;2022-08-21T20:14:43;21.30;99.90
9965;DHT22;5023;53.554;9.964;2022-08-21T20:19:47;21.20;99.90
9965;DHT22;5023;53.554;9.964;2022-08-21T20:25:07;21.10;99.90
9965;DHT22;5023;53.554;9.964;2022-08-21T20:30:28;21.10;99.90
9965;DHT22;5023;53.554;9.964;2022-08-21T20:35:34;21.10;99.90
9965;DHT22;5023;53.554;9.964;2022-08-21T20:40:43;21.00;99.90
9965;DHT22;5023;53.554;9.964;2022-08-21T20:46:27;21.00;99.90
9965;DHT22;5023;53.554;9.964;2022-08-21T20:51:42;20.90;99.90
9965;DHT22;5023;53.554;9.964;2022-08-21T20:57:04;20.90;99.90
9965;DHT22;5023;53.554;9.964;2022-08-21T21:02:48;20.90;99.90
9965;DHT22;5023;53.554;9.964;2022-08-21T21:08:56;20.80;99.90
9965;DHT22;5023;53.554;9.964;2022-08-21T21:14:17;20.80;99.90
9965;DHT22;5023;53.554;9.964;2022-08-21T21:19:50;20.80;99.90
9965;DHT22;5023;53.554;9.964;2022-08-21T21:25:15;20.70;99.90
9965;DHT22;5023;53.554;9.964;2022-08-21T21:30:58;20.70;99.90
9965;DHT22;5023;53.554;9.964;2022-08-21T21:36:41;20.60;99.90
9965;DHT22;5023;53.554;9.964;2022-08-21T21:42:38;20.50;99.90
9965;DHT22;5023;53.554;9.964;2022-08-21T21:48:25;20.40;99.90
9965;DHT22;5023;53.554;9.964;2022-08-21T21:54:23;20.30;99.90
9965;DHT22;5023;53.554;9.964;2022-08-21T22:00:05;20.30;99.90
9965;DHT22;5023;53.554;9.964;2022-08-21T22:05:59;20.30;99.90
9965;DHT22;5023;53.554;9.964;2022-08-21T22:11:42;20.30;99.90
9965;DHT22;5023;53.554;9.964;2022-08-21T22:17:41;20.30;99.90
9965;DHT22;5023;53.554;9.964;2022-08-21T22:23:06;20.20;99.90
9965;DHT22;5023;53.554;9.964;2022-08-21T22:28:15;20.20;99.90
9965;DHT22;5023;53.554;9.964;2022-08-21T22:33:30;20.20;99.90
9965;DHT22;5023;53.554;9.964;2022-08-21T22:38:56;20.20;99.90
9965;DHT22;5023;53.554;9.964;2022-08-21T22:44:05;20.10;99.90
9965;DHT22;5023;53.554;9.964;2022-08-21T22:49:30;20.10;99.90
9965;DHT22;5023;53.554;9.964;2022-08-21T22:55:21;20.00;99.90
9965;DHT22;5023;53.554;9.964;2022-08-21T23:01:31;20.10;99.90
9965;DHT22;5023;53.554;9.964;2022-08-21T23:06:55;20.00;99.90
9965;DHT22;5023;53.554;9.964;2022-08-21T23:12:02;20.00;99.90
9965;DHT22;5023;53.554;9.964;2022-08-21T23:17:21;19.90;99.90
9965;DHT22;5023;53.554;9.964;2022-08-21T23:22:38;19.80;99.90
9965;DHT22;5023;53.554;9.964;2022-08-21T23:28:09;19.80;99.90
9965;DHT22;5023;53.554;9.964;2022-08-21T23:33:59;19.90;99.90
9965;DHT22;5023;53.554;9.964;2022-08-21T23:39:30;19.70;99.90
9965;DHT22;5023;53.554;9.964;2022-08-21T23:44:59;19.70;99.90
9965;DHT22;5023;53.554;9.964;2022-08-21T23:50:07;19.70;99.90
9965;DHT22;5023;53.554;9.964;2022-08-21T23:55:20;19.70;99.90
